Sugar Bowl, California Weather observations

Data are for observation ending at time listed.
 Day   Time    Ave.   Ave.  Ave.  Vector   Max.   Stn.    Total    Solar   Ave.   Snow 
  of    of     Air    Rel.  Wind   Wind    Wind   Baro.  Precip.   Rad.    Soil   Depth
Year   Day     Temp.  Hum.  Speed  Dir.    Gust   Pres.                    Temp.       
2014   (PST)    F      %     mph   deg.    mph     mb.     in.     W/m2     F      in. 
---------------------------------------------------------------------------------------  
 233    1:40   45.8    73    0.0   217      0.5   789.9    0.00       0    999.0    4.7
 233    1:50   45.9    71    0.0   201      0.9   789.9    0.00       0    999.0    5.5
 233    2:00   45.9    71    0.1   183      0.9   789.9    0.00       0    999.0    5.6
 233    2:10   46.0    72    0.5   186      4.2   789.9    0.00       0    999.0    5.0
 233    2:20   46.3    71    0.3   183      2.9   789.9    0.00       0    999.0    4.1
 233    2:30   46.4    72    0.2   198      2.1   789.9    0.00       0    999.0    3.7
 233    2:40   45.9    74    0.5   171      2.3   790.0    0.00       0    999.0    3.3
 233    2:50   45.6    75    0.6   175      2.8   790.0    0.00       0    999.0    2.3
 233    3:00   45.9    75    0.5   191      3.1   789.9    0.00       0    999.0    2.9
 233    3:10   45.6    76    0.2   275      3.4   789.9    0.00       0    999.0    1.7
 233    3:20   45.4    76    0.1   176      1.3   789.9    0.00       0    999.0    2.1
 233    3:30   45.2    78    0.2   121      2.3   789.9    0.00       0    999.0    1.4
 233    3:40   45.2    79    0.5   226      3.3   789.9    0.00       0    999.0    1.1
 233    3:50   45.1    80    0.3   214      2.4   789.9    0.00       0    999.0    1.6
 233    4:00   44.9    80    0.2   146      2.1   789.9    0.00       0    999.0    2.2
 233    4:10   44.9    80    0.3   187      2.5   789.9    0.00       0    999.0    1.5
 233    4:20   45.2    80    0.2   193      1.5   789.9    0.00       0    999.0    1.2
 233    4:30   45.3    80    0.1   232      1.2   789.8    0.00       0    999.0    1.5
 233    4:40   45.3    79    0.1   171      1.5   789.8    0.00       0    999.0    1.7
 233    4:50   45.2    78    0.1   176      1.4   789.8    0.00       0    999.0    1.8
 233    5:00   45.0    78    0.3   172      1.6   789.8    0.00       0    999.0    1.9
 233    5:10   45.0    78    0.0   184      0.4   789.8    0.00       0    999.0    2.4
 233    5:20   44.7    78    0.0   186      1.6   789.8    0.00       1    999.0    2.6
 233    5:30   44.4    78    0.2   241      2.8   789.9    0.00       4    999.0    3.4
 233    5:40   44.6    77    0.1   211      1.7   790.1    0.00       6    999.0    3.8
 233    5:50   44.6    77    0.2   133      2.5   790.2    0.00       8    999.0    3.6
 233    6:00   44.6    77    0.0     0      0.0   790.2    0.00      10    999.0    2.5
 233    6:10   44.9    76    0.2   167      2.4   790.3    0.00      27    999.0    2.8
 233    6:20   47.1    72    0.2   108      1.8   790.4    0.00     152    999.0    1.8
 233    6:30   50.9    65    0.2   134      1.8   790.5    0.00     189    999.0    2.0
 233    6:40   52.7    62    0.8    88      4.5   790.5    0.00     225    999.0    2.2
 233    6:50   52.6    62    0.9    79      5.3   790.5    0.00     260    999.0    3.8
 233    7:00   54.4    60    0.6    85      2.8   790.5    0.00     296    999.0    2.7
 233    7:10   56.5    56    1.3   344      5.6   790.5    0.00     332    999.0    4.2
 233    7:20   57.8    47    2.1   270      8.8   790.5    0.00     367    999.0    4.9
 233    7:30   59.7    41    2.1   238     15.6   790.5    0.00     404    999.0    4.7
 233    7:40   60.0    39    3.0   264     15.2   790.6    0.00     439    999.0    3.0
 233    7:50   60.0    40    2.9   279     14.8   790.6    0.00     474    999.0    4.3
 233    8:00   60.2    40    3.3   281     12.7   790.6    0.00     508    999.0    3.5
 233    8:10   60.5    39    2.5   183      8.3   790.6    0.00     300    999.0    2.8
 233    8:20   60.6    39    3.1   251     12.8   790.6    0.00     316    999.0    4.4
 233    8:30   60.6    39    2.9   283     12.6   790.6    0.00      70    999.0    4.0
 233    8:40   60.5    40    2.3   278      6.9   790.7    0.00      51    999.0    3.8
 233    8:50   60.9    40    2.1   299      9.0   790.7    0.00      57    999.0    2.3
 233    9:00   61.4    39    3.2   218     13.5   790.8    0.00      60    999.0    2.6
 233    9:10   61.6    39    2.4   197     10.6   790.9    0.00      59    999.0    2.5
 233    9:20   62.4    40    2.2   221      7.2   790.8    0.00      59    999.0    3.1
 233    9:30   62.6    37    4.1   191     18.3   790.9    0.00      55    999.0    2.9
 233    9:40   63.0    39    3.6   183     10.9   790.9    0.00      56    999.0    0.9
 233    9:50   63.5    36    3.1   239     13.2   791.0    0.00      71    999.0    3.0
 233   10:00   63.6    36    2.3   298     10.2   791.0    0.00      90    999.0    1.4
 233   10:10   64.1    35    3.4   300      9.4   791.0    0.00      58    999.0    3.0
 233   10:20   64.2    33    3.0   296     16.0   791.0    0.00      63    999.0    2.0
 233   10:30   64.7    32    3.5   302     11.5   790.9    0.00     337    999.0    4.4
 233   10:40   64.7    32    3.7   294     10.2   790.9    0.00     737    999.0    2.4
 233   10:50   65.6    33    3.2   292     11.5   790.9    0.00     790    999.0    3.2
 233   11:00   64.8    32    3.5   278     11.6   790.9    0.00     928    999.0    4.0
 233   11:10   65.9    33    2.6   297     17.2   790.8    0.00     949    999.0    4.0
 233   11:20   66.4    32    3.6   276     11.7   790.9    0.00     958    999.0    3.5
 233   11:30   66.6    32    2.6   329      7.6   790.8    0.00     963    999.0    3.9
 233   11:40   67.1    32    3.1   291     16.9   790.7    0.00     966    999.0    3.6
 233   11:50   66.7    32    3.1   260     13.9   790.6    0.00     967    999.0    3.7
 233   12:00   67.8    32    2.8   300     10.2   790.6    0.00     970    999.0    3.7
 233   12:10   67.3    32    3.4   284     14.0   790.6    0.00     970    999.0    4.3
 233   12:20   67.6    32    3.1   290     14.6   790.6    0.00     963    999.0    1.9
 233   12:30   67.1    33    3.3   304     15.6   790.7    0.00     471    999.0    1.5
 233   12:40   67.4    33    3.3   322     12.9   790.7    0.00     266    999.0    1.2
 233   12:50   67.6    32    4.0   322      9.2   790.7    0.00     232    999.0    1.9
 233   13:00   67.4    31    4.3   327     23.5   790.7    0.00      68    999.0    3.5
 233   13:10   68.2    32    4.0   308     12.3   790.7    0.00      69    999.0    1.9
 233   13:20   67.9    32    3.3   283     14.8   790.6    0.00      68    999.0    3.4
 233   13:30   68.2    32    3.4   312     16.1   790.6    0.00      67    999.0    2.9
 233   13:40   67.8    31    4.0   294     13.4   790.5    0.00      67    999.0    3.0
 233   13:50   67.9    31    3.9   299     15.9   790.5    0.00      68    999.0    3.6
 233   14:00   68.0    31    3.6   306     15.9   790.5    0.00     104    999.0    2.2
 233   14:10   68.3    31    3.5   333     11.0   790.5    0.00     417    999.0    2.2
 233   14:20   68.4    32    3.9   327     13.5   790.4    0.00     824    999.0    2.6
 233   14:30   68.3    31    4.6   319     27.8   790.3    0.00     801    999.0    2.7
 233   14:40   68.6    31    3.6   311     13.3   790.3    0.00     780    999.0    1.8
 233   14:50   68.4    32    3.8   318     17.2   790.3    0.00     753    999.0    1.1
 233   15:00   68.0    32    3.9   330     16.8   790.2    0.00     730    999.0    1.7
 233   15:10   67.6    32    3.9   323     16.1   790.2    0.00     703    999.0    2.6
 233   15:20   67.3    32    4.5   318     16.4   790.2    0.00     640    999.0    0.8
 233   15:30   67.2    32    3.7   326     14.8   790.2    0.00     232    999.0    2.6
 233   15:40   67.1    33    4.0   323     19.8   790.2    0.00     174    999.0    2.2
 233   15:50   66.3    35    4.5   285     21.9   790.3    0.00     243    999.0    2.4
 233   16:00   66.4    35    3.3   298     11.4   790.3    0.00     270    999.0    1.3
 233   16:10   66.1    35    4.0   322     15.8   790.3    0.00     401    999.0    2.2
 233   16:20   65.8    35    4.9   313     22.4   790.3    0.00     238    999.0    1.2
 233   16:30   65.7    36    3.4   314     17.5   790.3    0.00      59    999.0    3.5
 233   16:40   65.9    34    2.8   326     10.2   790.3    0.00     161    999.0    3.3
 233   16:50   65.2    35    3.3   312     10.2   790.4    0.00     149    999.0    3.4
 233   17:00   65.0    34    4.2   270     16.7   790.5    0.00     132    999.0    0.9
 233   17:10   65.0    34    3.9   305     11.1   790.4    0.00      71    999.0    2.1
 233   17:20   64.5    35    3.9   276     22.2   790.4    0.00      43    999.0    2.6
 233   17:30   64.0    36    3.2   268     17.5   790.4    0.00     115    999.0    2.7
 233   17:40   63.2    38    3.6   268     11.3   790.4    0.00     101    999.0    2.2
 233   17:50   62.6    39    3.5   273     15.8   790.4    0.00      32    999.0    3.8
 233   18:00   61.8    40    3.9   278     13.5   790.4    0.00      23    999.0    3.4
 233   18:10   61.3    41    3.0   258     12.1   790.4    0.00      14    999.0    3.7
 233   18:20   60.7    42    3.4   270     11.8   790.5    0.00       7    999.0    2.6
 233   18:30   60.2    42    2.0   234      8.2   790.6    0.00       6    999.0    3.6
 233   18:40   59.6    44    1.6   246     10.0   790.6    0.00       5    999.0    3.2
 233   18:50   59.1    44    1.9   273      7.7   790.6    0.00       3    999.0    2.2
 233   19:00   58.6    45    1.6   265      6.6   790.7    0.00       1    999.0    1.5
 233   19:10   58.0    47    1.6   251      8.8   790.7    0.00       0    999.0    2.6
 233   19:20   57.4    49    1.1   228      5.8   790.8    0.00       0    999.0    1.9
 233   19:30   56.4    51    1.0   255      5.3   790.8    0.00       0    999.0    1.8
 233   19:40   56.1    52    0.7   269      3.7   790.9    0.00       0    999.0    2.1
 233   19:50   55.0    54    0.6   206      3.1   791.0    0.00       0    999.0    1.3
 233   20:00   54.1    56    0.6   203      2.7   791.1    0.00       0    999.0    1.6
 233   20:10   53.6    58    0.3   269      1.3   791.1    0.00       0    999.0    1.5
 233   20:20   53.9    57    0.6   230      4.8   791.1    0.00       0    999.0    1.6
 233   20:30   53.9    57    1.0   280      3.6   791.0    0.00       0    999.0    1.7
 233   20:40   54.0    57    1.2   245      5.2   791.0    0.00       0    999.0    1.5
 233   20:50   53.0    60    0.7   267      2.9   791.0    0.00       0    999.0    1.4
 233   21:00   51.4    63    0.4   197      3.1   791.0    0.00       0    999.0    1.4
 233   21:10   50.3    66    0.5   227      3.1   791.0    0.00       0    999.0    1.8
 233   21:20   49.8    67    0.5   214      2.9   791.0    0.00       0    999.0    1.9
 233   21:30   49.6    67    0.6   199      3.4   790.9    0.00       0    999.0    1.9
 233   21:40   49.7    66    1.1   266      9.9   790.8    0.00       0    999.0    3.0
 233   21:50   50.0    63    0.8   217      7.2   790.7    0.00       0    999.0    2.7
 233   22:00   49.8    64    0.5   303      3.2   790.7    0.00       0    999.0    1.9
 233   22:10   48.8    65    0.3   188      2.8   790.7    0.00       0    999.0    1.7
 233   22:20   48.2    66    0.4   189      2.3   790.8    0.00       0    999.0    2.6
 233   22:30   47.8    67    0.4   184      1.9   790.8    0.00       0    999.0    3.0
 233   22:40   47.6    69    0.4   278      2.3   790.8    0.00       0    999.0    1.5
 233   22:50   47.3    69    0.5   190      2.8   790.8    0.00       0    999.0    2.2
 233   23:00   47.2    70    0.3   189      2.4   790.9    0.00       0    999.0    3.0
 233   23:10   47.0    70    0.1   269      0.7   790.7    0.00       0    999.0    2.0
 233   23:20   47.2    69    0.2   285      1.9   790.5    0.00       0    999.0    2.8
 233   23:30   47.0    70    0.3   202      2.9   790.5    0.00       0    999.0    2.2
 233   23:40   47.3    69    1.1   264      3.2   790.5    0.00       0    999.0    2.4
 233   23:50   47.8    68    0.9   268      3.9   790.5    0.00       0    999.0    2.5
 234    0:00   47.3    69    0.2   264      1.8   790.5    0.00       0    999.0    2.6
 234    0:10   47.1    69    0.4   235      2.8   790.4    0.00       0    999.0    2.0
 234    0:20   47.2    69    0.6   209      2.6   790.3    0.00       0    999.0    1.8
 234    0:30   46.8    70    0.6   258      2.8   790.3    0.00       0    999.0    2.1
 234    0:40   46.2    72    0.6   238      2.5   790.2    0.00       0    999.0    1.7
 234    0:50   46.3    71    0.7   247      3.8   790.2    0.00       0    999.0    1.9
 234    1:00   46.4    71    0.8   254      2.8   790.1    0.00       0    999.0    2.4
 234    1:10   46.4    71    1.3   187      4.7   790.1    0.00       0    999.0    2.1
 234    1:20   46.4    70    0.8   258      6.1   790.0    0.00       0    999.0    2.3
 234    1:30   46.8    70    1.3   264      5.3   789.9    0.00       0    999.0    2.7

Return to Sugar Bowl graphs page.


Western Regional Climate Center,wrcc@dri.edu